sensor_id;sensor_type;location;lat;lon;timestamp;P1;durP1;ratioP1;P2;durP2;ratioP2
8474;SDS011;4274;52.012;8.448;2022-08-14T00:00:27;54.20;;;7.77;;
8474;SDS011;4274;52.012;8.448;2022-08-14T00:02:52;53.37;;;7.23;;
8474;SDS011;4274;52.012;8.448;2022-08-14T00:05:19;51.97;;;7.00;;
8474;SDS011;4274;52.012;8.448;2022-08-14T00:07:46;54.27;;;6.87;;
8474;SDS011;4274;52.012;8.448;2022-08-14T00:10:14;53.33;;;7.00;;
8474;SDS011;4274;52.012;8.448;2022-08-14T00:12:43;57.50;;;8.33;;
8474;SDS011;4274;52.012;8.448;2022-08-14T00:15:33;53.77;;;7.37;;
8474;SDS011;4274;52.012;8.448;2022-08-14T00:17:59;52.30;;;7.20;;
8474;SDS011;4274;52.012;8.448;2022-08-14T00:20:27;52.57;;;7.47;;
8474;SDS011;4274;52.012;8.448;2022-08-14T00:22:54;55.03;;;7.13;;
8474;SDS011;4274;52.012;8.448;2022-08-14T00:25:20;56.30;;;6.90;;
8474;SDS011;4274;52.012;8.448;2022-08-14T00:27:46;54.23;;;7.20;;
8474;SDS011;4274;52.012;8.448;2022-08-14T00:30:12;57.03;;;7.40;;
8474;SDS011;4274;52.012;8.448;2022-08-14T00:32:38;54.00;;;7.43;;
8474;SDS011;4274;52.012;8.448;2022-08-14T00:35:04;52.90;;;7.30;;
8474;SDS011;4274;52.012;8.448;2022-08-14T00:37:31;52.47;;;7.03;;
8474;SDS011;4274;52.012;8.448;2022-08-14T00:39:58;60.50;;;7.17;;
8474;SDS011;4274;52.012;8.448;2022-08-14T00:42:24;52.47;;;7.27;;
8474;SDS011;4274;52.012;8.448;2022-08-14T00:44:50;50.97;;;6.40;;
8474;SDS011;4274;52.012;8.448;2022-08-14T00:47:16;55.83;;;7.00;;
8474;SDS011;4274;52.012;8.448;2022-08-14T00:49:43;60.30;;;8.00;;
8474;SDS011;4274;52.012;8.448;2022-08-14T00:52:10;52.20;;;6.60;;
8474;SDS011;4274;52.012;8.448;2022-08-14T00:54:37;52.83;;;7.37;;
8474;SDS011;4274;52.012;8.448;2022-08-14T00:57:04;53.60;;;7.23;;
8474;SDS011;4274;52.012;8.448;2022-08-14T00:59:30;54.60;;;7.30;;
8474;SDS011;4274;52.012;8.448;2022-08-14T01:01:56;52.17;;;6.83;;
8474;SDS011;4274;52.012;8.448;2022-08-14T01:04:23;55.63;;;7.30;;
8474;SDS011;4274;52.012;8.448;2022-08-14T01:06:50;55.60;;;6.67;;
8474;SDS011;4274;52.012;8.448;2022-08-14T01:09:17;55.03;;;7.13;;
8474;SDS011;4274;52.012;8.448;2022-08-14T01:11:47;58.70;;;7.40;;
8474;SDS011;4274;52.012;8.448;2022-08-14T01:14:15;59.70;;;7.00;;
8474;SDS011;4274;52.012;8.448;2022-08-14T01:16:41;56.10;;;7.00;;
8474;SDS011;4274;52.012;8.448;2022-08-14T01:19:07;52.47;;;6.80;;
8474;SDS011;4274;52.012;8.448;2022-08-14T01:21:51;56.97;;;7.07;;
8474;SDS011;4274;52.012;8.448;2022-08-14T01:24:17;53.60;;;7.60;;
8474;SDS011;4274;52.012;8.448;2022-08-14T01:26:45;58.37;;;7.90;;
8474;SDS011;4274;52.012;8.448;2022-08-14T01:29:11;51.20;;;6.37;;
8474;SDS011;4274;52.012;8.448;2022-08-14T01:31:38;60.53;;;6.80;;
8474;SDS011;4274;52.012;8.448;2022-08-14T01:34:16;52.57;;;6.57;;
8474;SDS011;4274;52.012;8.448;2022-08-14T01:36:44;54.13;;;6.83;;
8474;SDS011;4274;52.012;8.448;2022-08-14T01:39:11;53.10;;;6.50;;
8474;SDS011;4274;52.012;8.448;2022-08-14T01:41:40;55.97;;;7.60;;
8474;SDS011;4274;52.012;8.448;2022-08-14T01:44:09;54.30;;;7.80;;
8474;SDS011;4274;52.012;8.448;2022-08-14T01:46:39;59.00;;;7.03;;
8474;SDS011;4274;52.012;8.448;2022-08-14T01:49:07;53.60;;;7.30;;
8474;SDS011;4274;52.012;8.448;2022-08-14T01:51:34;53.13;;;7.27;;
8474;SDS011;4274;52.012;8.448;2022-08-14T01:54:06;53.73;;;7.07;;
8474;SDS011;4274;52.012;8.448;2022-08-14T01:56:34;54.20;;;7.40;;
8474;SDS011;4274;52.012;8.448;2022-08-14T01:59:02;59.97;;;7.10;;
8474;SDS011;4274;52.012;8.448;2022-08-14T02:01:52;52.33;;;7.13;;
8474;SDS011;4274;52.012;8.448;2022-08-14T02:04:21;55.43;;;7.70;;
8474;SDS011;4274;52.012;8.448;2022-08-14T02:06:48;54.30;;;7.63;;
8474;SDS011;4274;52.012;8.448;2022-08-14T02:09:15;52.90;;;7.20;;
8474;SDS011;4274;52.012;8.448;2022-08-14T02:11:41;54.53;;;7.10;;
8474;SDS011;4274;52.012;8.448;2022-08-14T02:14:08;51.77;;;7.30;;
8474;SDS011;4274;52.012;8.448;2022-08-14T02:16:37;54.40;;;6.90;;
8474;SDS011;4274;52.012;8.448;2022-08-14T02:19:05;52.57;;;7.30;;
8474;SDS011;4274;52.012;8.448;2022-08-14T02:21:34;53.83;;;7.63;;
8474;SDS011;4274;52.012;8.448;2022-08-14T02:24:01;64.90;;;8.67;;
8474;SDS011;4274;52.012;8.448;2022-08-14T02:26:30;57.40;;;7.13;;
8474;SDS011;4274;52.012;8.448;2022-08-14T02:29:03;55.00;;;7.73;;
8474;SDS011;4274;52.012;8.448;2022-08-14T02:31:36;55.83;;;8.23;;
8474;SDS011;4274;52.012;8.448;2022-08-14T02:34:25;54.30;;;7.40;;
8474;SDS011;4274;52.012;8.448;2022-08-14T02:37:07;55.50;;;6.80;;
8474;SDS011;4274;52.012;8.448;2022-08-14T02:39:37;51.90;;;7.40;;
8474;SDS011;4274;52.012;8.448;2022-08-14T02:42:06;53.70;;;7.63;;
8474;SDS011;4274;52.012;8.448;2022-08-14T02:44:33;54.63;;;8.20;;
8474;SDS011;4274;52.012;8.448;2022-08-14T02:46:59;53.10;;;7.63;;
8474;SDS011;4274;52.012;8.448;2022-08-14T02:49:25;54.73;;;7.87;;
8474;SDS011;4274;52.012;8.448;2022-08-14T02:51:53;53.93;;;7.93;;
8474;SDS011;4274;52.012;8.448;2022-08-14T02:54:20;53.00;;;7.43;;
8474;SDS011;4274;52.012;8.448;2022-08-14T02:56:47;53.73;;;7.70;;
8474;SDS011;4274;52.012;8.448;2022-08-14T02:59:14;52.50;;;6.87;;
8474;SDS011;4274;52.012;8.448;2022-08-14T03:01:42;53.33;;;7.73;;
8474;SDS011;4274;52.012;8.448;2022-08-14T03:04:07;54.47;;;7.87;;
8474;SDS011;4274;52.012;8.448;2022-08-14T03:06:34;53.30;;;8.00;;
8474;SDS011;4274;52.012;8.448;2022-08-14T03:09:03;52.93;;;7.40;;
8474;SDS011;4274;52.012;8.448;2022-08-14T03:11:30;60.23;;;8.07;;
8474;SDS011;4274;52.012;8.448;2022-08-14T03:13:56;52.20;;;6.80;;
8474;SDS011;4274;52.012;8.448;2022-08-14T03:16:23;55.67;;;8.13;;
8474;SDS011;4274;52.012;8.448;2022-08-14T03:18:51;54.17;;;8.03;;
8474;SDS011;4274;52.012;8.448;2022-08-14T03:21:20;52.80;;;7.90;;
8474;SDS011;4274;52.012;8.448;2022-08-14T03:23:49;51.80;;;7.23;;
8474;SDS011;4274;52.012;8.448;2022-08-14T03:26:18;56.73;;;7.50;;
8474;SDS011;4274;52.012;8.448;2022-08-14T03:28:47;51.90;;;7.47;;
8474;SDS011;4274;52.012;8.448;2022-08-14T03:31:15;55.00;;;8.20;;
8474;SDS011;4274;52.012;8.448;2022-08-14T03:33:46;54.27;;;7.27;;
8474;SDS011;4274;52.012;8.448;2022-08-14T03:36:12;51.90;;;7.33;;
8474;SDS011;4274;52.012;8.448;2022-08-14T03:38:43;54.13;;;7.90;;
8474;SDS011;4274;52.012;8.448;2022-08-14T03:41:14;56.23;;;7.50;;
8474;SDS011;4274;52.012;8.448;2022-08-14T03:44:03;52.40;;;7.83;;
8474;SDS011;4274;52.012;8.448;2022-08-14T03:46:29;52.40;;;7.70;;
8474;SDS011;4274;52.012;8.448;2022-08-14T03:48:56;53.60;;;7.20;;
8474;SDS011;4274;52.012;8.448;2022-08-14T03:51:22;53.03;;;6.83;;
8474;SDS011;4274;52.012;8.448;2022-08-14T03:53:52;53.10;;;7.70;;
8474;SDS011;4274;52.012;8.448;2022-08-14T03:56:21;54.20;;;7.90;;
8474;SDS011;4274;52.012;8.448;2022-08-14T03:58:48;52.90;;;7.13;;
8474;SDS011;4274;52.012;8.448;2022-08-14T04:01:15;55.20;;;7.73;;
8474;SDS011;4274;52.012;8.448;2022-08-14T04:03:46;55.20;;;8.20;;
8474;SDS011;4274;52.012;8.448;2022-08-14T04:06:13;54.23;;;7.70;;
8474;SDS011;4274;52.012;8.448;2022-08-14T04:08:40;53.93;;;7.77;;
8474;SDS011;4274;52.012;8.448;2022-08-14T04:11:07;51.17;;;7.30;;
8474;SDS011;4274;52.012;8.448;2022-08-14T04:13:35;60.40;;;8.33;;
8474;SDS011;4274;52.012;8.448;2022-08-14T04:16:04;52.37;;;8.23;;
8474;SDS011;4274;52.012;8.448;2022-08-14T04:18:32;55.10;;;8.60;;
8474;SDS011;4274;52.012;8.448;2022-08-14T04:20:58;54.60;;;8.97;;
8474;SDS011;4274;52.012;8.448;2022-08-14T04:23:24;53.20;;;7.90;;
8474;SDS011;4274;52.012;8.448;2022-08-14T04:25:50;53.10;;;8.30;;
8474;SDS011;4274;52.012;8.448;2022-08-14T04:28:19;53.70;;;7.80;;
8474;SDS011;4274;52.012;8.448;2022-08-14T04:30:46;59.03;;;8.50;;
8474;SDS011;4274;52.012;8.448;2022-08-14T04:33:11;56.00;;;8.53;;
8474;SDS011;4274;52.012;8.448;2022-08-14T04:35:38;52.40;;;8.00;;
8474;SDS011;4274;52.012;8.448;2022-08-14T04:38:05;63.63;;;8.90;;
8474;SDS011;4274;52.012;8.448;2022-08-14T04:40:50;57.57;;;8.13;;
8474;SDS011;4274;52.012;8.448;2022-08-14T04:43:34;51.87;;;7.90;;
8474;SDS011;4274;52.012;8.448;2022-08-14T04:46:03;54.37;;;8.83;;
8474;SDS011;4274;52.012;8.448;2022-08-14T04:48:31;58.00;;;9.20;;
8474;SDS011;4274;52.012;8.448;2022-08-14T04:50:57;54.73;;;8.53;;
8474;SDS011;4274;52.012;8.448;2022-08-14T04:53:24;56.77;;;7.83;;
8474;SDS011;4274;52.012;8.448;2022-08-14T04:55:51;64.03;;;9.67;;
8474;SDS011;4274;52.012;8.448;2022-08-14T04:58:19;54.60;;;8.70;;
8474;SDS011;4274;52.012;8.448;2022-08-14T05:00:52;53.27;;;8.93;;
8474;SDS011;4274;52.012;8.448;2022-08-14T05:03:20;52.77;;;8.77;;
8474;SDS011;4274;52.012;8.448;2022-08-14T05:05:48;53.13;;;8.37;;
8474;SDS011;4274;52.012;8.448;2022-08-14T05:08:18;56.67;;;8.60;;
8474;SDS011;4274;52.012;8.448;2022-08-14T05:10:46;53.27;;;7.77;;
8474;SDS011;4274;52.012;8.448;2022-08-14T05:13:19;54.77;;;8.80;;
8474;SDS011;4274;52.012;8.448;2022-08-14T05:15:47;56.70;;;9.03;;
8474;SDS011;4274;52.012;8.448;2022-08-14T05:18:16;54.90;;;8.10;;
8474;SDS011;4274;52.012;8.448;2022-08-14T05:20:48;52.00;;;7.97;;
8474;SDS011;4274;52.012;8.448;2022-08-14T05:23:16;52.97;;;8.20;;
8474;SDS011;4274;52.012;8.448;2022-08-14T05:25:52;53.37;;;8.03;;
8474;SDS011;4274;52.012;8.448;2022-08-14T05:28:20;52.50;;;8.17;;
8474;SDS011;4274;52.012;8.448;2022-08-14T05:31:07;59.50;;;8.33;;
8474;SDS011;4274;52.012;8.448;2022-08-14T05:33:34;53.87;;;7.80;;
8474;SDS011;4274;52.012;8.448;2022-08-14T05:36:01;53.97;;;7.80;;
8474;SDS011;4274;52.012;8.448;2022-08-14T05:38:33;59.03;;;8.13;;
8474;SDS011;4274;52.012;8.448;2022-08-14T05:41:02;53.97;;;7.90;;
8474;SDS011;4274;52.012;8.448;2022-08-14T05:43:29;53.30;;;8.10;;
8474;SDS011;4274;52.012;8.448;2022-08-14T05:45:55;54.40;;;8.43;;
8474;SDS011;4274;52.012;8.448;2022-08-14T05:48:22;56.30;;;8.00;;
8474;SDS011;4274;52.012;8.448;2022-08-14T05:50:48;55.93;;;8.03;;
8474;SDS011;4274;52.012;8.448;2022-08-14T05:53:15;52.83;;;8.00;;
8474;SDS011;4274;52.012;8.448;2022-08-14T05:55:40;52.00;;;7.53;;
8474;SDS011;4274;52.012;8.448;2022-08-14T05:58:06;52.40;;;7.83;;
8474;SDS011;4274;52.012;8.448;2022-08-14T06:00:37;53.40;;;7.73;;
8474;SDS011;4274;52.012;8.448;2022-08-14T06:03:05;54.17;;;7.87;;
8474;SDS011;4274;52.012;8.448;2022-08-14T06:05:45;51.17;;;6.93;;
8474;SDS011;4274;52.012;8.448;2022-08-14T06:08:13;54.60;;;7.13;;
8474;SDS011;4274;52.012;8.448;2022-08-14T06:10:40;53.07;;;7.43;;
8474;SDS011;4274;52.012;8.448;2022-08-14T06:13:06;52.30;;;7.30;;
8474;SDS011;4274;52.012;8.448;2022-08-14T06:15:32;54.50;;;7.70;;
8474;SDS011;4274;52.012;8.448;2022-08-14T06:17:58;53.40;;;7.10;;
8474;SDS011;4274;52.012;8.448;2022-08-14T06:20:23;55.93;;;7.47;;
8474;SDS011;4274;52.012;8.448;2022-08-14T06:22:49;53.93;;;7.00;;
8474;SDS011;4274;52.012;8.448;2022-08-14T06:25:15;51.17;;;6.73;;
8474;SDS011;4274;52.012;8.448;2022-08-14T06:27:42;56.77;;;7.93;;
8474;SDS011;4274;52.012;8.448;2022-08-14T06:30:13;56.80;;;7.13;;
8474;SDS011;4274;52.012;8.448;2022-08-14T06:32:42;53.97;;;7.50;;
8474;SDS011;4274;52.012;8.448;2022-08-14T06:35:08;51.40;;;6.97;;
8474;SDS011;4274;52.012;8.448;2022-08-14T06:40:05;52.10;;;7.57;;
8474;SDS011;4274;52.012;8.448;2022-08-14T06:42:32;52.30;;;7.40;;
8474;SDS011;4274;52.012;8.448;2022-08-14T06:44:58;52.10;;;7.10;;
8474;SDS011;4274;52.012;8.448;2022-08-14T06:47:25;51.07;;;6.93;;
8474;SDS011;4274;52.012;8.448;2022-08-14T06:49:51;52.07;;;7.53;;
8474;SDS011;4274;52.012;8.448;2022-08-14T06:52:17;55.10;;;7.80;;
8474;SDS011;4274;52.012;8.448;2022-08-14T06:54:43;51.97;;;7.30;;
8474;SDS011;4274;52.012;8.448;2022-08-14T06:57:09;52.53;;;7.20;;
8474;SDS011;4274;52.012;8.448;2022-08-14T06:59:34;52.10;;;7.30;;
8474;SDS011;4274;52.012;8.448;2022-08-14T07:02:00;54.50;;;7.10;;
8474;SDS011;4274;52.012;8.448;2022-08-14T07:04:44;53.37;;;7.70;;
8474;SDS011;4274;52.012;8.448;2022-08-14T07:07:38;51.83;;;7.43;;
8474;SDS011;4274;52.012;8.448;2022-08-14T07:10:05;54.70;;;8.40;;
8474;SDS011;4274;52.012;8.448;2022-08-14T07:12:33;52.10;;;7.27;;
8474;SDS011;4274;52.012;8.448;2022-08-14T07:14:59;51.97;;;7.87;;
8474;SDS011;4274;52.012;8.448;2022-08-14T07:17:24;53.67;;;7.30;;
8474;SDS011;4274;52.012;8.448;2022-08-14T07:19:50;54.80;;;7.70;;
8474;SDS011;4274;52.012;8.448;2022-08-14T07:22:16;55.50;;;7.70;;
8474;SDS011;4274;52.012;8.448;2022-08-14T07:24:42;54.87;;;8.30;;
8474;SDS011;4274;52.012;8.448;2022-08-14T07:27:08;55.63;;;7.37;;
8474;SDS011;4274;52.012;8.448;2022-08-14T07:29:33;52.43;;;7.73;;
8474;SDS011;4274;52.012;8.448;2022-08-14T07:31:59;53.20;;;8.23;;
8474;SDS011;4274;52.012;8.448;2022-08-14T07:34:25;53.00;;;7.80;;
8474;SDS011;4274;52.012;8.448;2022-08-14T07:36:50;55.60;;;7.50;;
8474;SDS011;4274;52.012;8.448;2022-08-14T07:39:16;53.07;;;7.97;;
8474;SDS011;4274;52.012;8.448;2022-08-14T07:41:42;59.78;;;8.10;;
8474;SDS011;4274;52.012;8.448;2022-08-14T07:44:08;57.93;;;8.40;;
8474;SDS011;4274;52.012;8.448;2022-08-14T07:46:38;53.83;;;7.27;;
8474;SDS011;4274;52.012;8.448;2022-08-14T07:49:04;56.40;;;7.93;;
8474;SDS011;4274;52.012;8.448;2022-08-14T07:51:31;53.57;;;8.60;;
8474;SDS011;4274;52.012;8.448;2022-08-14T07:53:57;58.10;;;8.07;;
8474;SDS011;4274;52.012;8.448;2022-08-14T07:56:24;54.10;;;8.50;;
8474;SDS011;4274;52.012;8.448;2022-08-14T07:58:49;53.43;;;7.17;;
8474;SDS011;4274;52.012;8.448;2022-08-14T08:01:16;54.37;;;7.90;;
8474;SDS011;4274;52.012;8.448;2022-08-14T08:03:44;52.67;;;8.03;;
8474;SDS011;4274;52.012;8.448;2022-08-14T08:06:11;53.30;;;7.53;;
8474;SDS011;4274;52.012;8.448;2022-08-14T08:08:40;51.70;;;7.40;;
8474;SDS011;4274;52.012;8.448;2022-08-14T08:11:07;54.67;;;7.83;;
8474;SDS011;4274;52.012;8.448;2022-08-14T08:13:35;56.00;;;7.80;;
8474;SDS011;4274;52.012;8.448;2022-08-14T08:16:04;52.77;;;7.07;;
8474;SDS011;4274;52.012;8.448;2022-08-14T08:18:32;56.60;;;7.20;;
8474;SDS011;4274;52.012;8.448;2022-08-14T08:20:58;53.27;;;7.27;;
8474;SDS011;4274;52.012;8.448;2022-08-14T08:23:24;53.77;;;7.33;;
8474;SDS011;4274;52.012;8.448;2022-08-14T08:25:53;52.47;;;7.20;;
8474;SDS011;4274;52.012;8.448;2022-08-14T08:28:19;54.83;;;7.23;;
8474;SDS011;4274;52.012;8.448;2022-08-14T08:30:51;53.37;;;7.17;;
8474;SDS011;4274;52.012;8.448;2022-08-14T08:33:22;57.37;;;7.50;;
8474;SDS011;4274;52.012;8.448;2022-08-14T08:35:50;54.80;;;8.50;;
8474;SDS011;4274;52.012;8.448;2022-08-14T08:38:21;53.50;;;8.40;;
8474;SDS011;4274;52.012;8.448;2022-08-14T08:40:48;55.50;;;8.37;;
8474;SDS011;4274;52.012;8.448;2022-08-14T08:43:22;55.63;;;7.93;;
8474;SDS011;4274;52.012;8.448;2022-08-14T08:45:53;52.70;;;6.87;;
8474;SDS011;4274;52.012;8.448;2022-08-14T08:48:41;59.08;;;7.78;;
8474;SDS011;4274;52.012;8.448;2022-08-14T08:51:34;55.80;;;7.83;;
8474;SDS011;4274;52.012;8.448;2022-08-14T08:56:34;52.13;;;8.00;;
8474;SDS011;4274;52.012;8.448;2022-08-14T08:59:02;53.60;;;7.80;;
8474;SDS011;4274;52.012;8.448;2022-08-14T09:01:45;56.30;;;8.10;;
8474;SDS011;4274;52.012;8.448;2022-08-14T09:04:12;53.87;;;7.53;;
8474;SDS011;4274;52.012;8.448;2022-08-14T09:06:45;53.40;;;7.97;;
8474;SDS011;4274;52.012;8.448;2022-08-14T09:09:18;55.17;;;8.13;;
8474;SDS011;4274;52.012;8.448;2022-08-14T09:11:45;54.87;;;7.30;;
8474;SDS011;4274;52.012;8.448;2022-08-14T09:14:11;52.80;;;7.60;;
8474;SDS011;4274;52.012;8.448;2022-08-14T09:16:36;58.53;;;8.20;;
8474;SDS011;4274;52.012;8.448;2022-08-14T09:19:03;52.97;;;7.77;;
8474;SDS011;4274;52.012;8.448;2022-08-14T09:21:28;52.53;;;6.93;;
8474;SDS011;4274;52.012;8.448;2022-08-14T09:23:55;61.53;;;8.63;;
8474;SDS011;4274;52.012;8.448;2022-08-14T09:26:20;56.30;;;7.63;;
8474;SDS011;4274;52.012;8.448;2022-08-14T09:28:46;59.30;;;8.17;;
8474;SDS011;4274;52.012;8.448;2022-08-14T09:31:12;52.97;;;7.67;;
8474;SDS011;4274;52.012;8.448;2022-08-14T09:38:53;54.27;;;7.50;;
8474;SDS011;4274;52.012;8.448;2022-08-14T09:47:02;56.73;;;7.30;;
8474;SDS011;4274;52.012;8.448;2022-08-14T09:49:29;60.57;;;8.10;;
8474;SDS011;4274;52.012;8.448;2022-08-14T09:52:02;52.90;;;7.30;;
8474;SDS011;4274;52.012;8.448;2022-08-14T09:54:34;55.00;;;7.47;;
8474;SDS011;4274;52.012;8.448;2022-08-14T09:57:02;56.07;;;6.87;;
8474;SDS011;4274;52.012;8.448;2022-08-14T09:59:37;52.60;;;7.43;;
8474;SDS011;4274;52.012;8.448;2022-08-14T10:02:16;52.07;;;6.90;;
8474;SDS011;4274;52.012;8.448;2022-08-14T10:04:43;53.30;;;7.30;;
8474;SDS011;4274;52.012;8.448;2022-08-14T10:07:10;54.60;;;7.70;;
8474;SDS011;4274;52.012;8.448;2022-08-14T10:09:46;52.43;;;6.60;;
8474;SDS011;4274;52.012;8.448;2022-08-14T10:12:13;54.50;;;6.73;;
8474;SDS011;4274;52.012;8.448;2022-08-14T10:14:39;53.57;;;6.10;;
8474;SDS011;4274;52.012;8.448;2022-08-14T10:17:05;52.93;;;7.17;;
8474;SDS011;4274;52.012;8.448;2022-08-14T10:19:31;57.93;;;6.80;;
8474;SDS011;4274;52.012;8.448;2022-08-14T10:22:02;53.33;;;6.77;;
8474;SDS011;4274;52.012;8.448;2022-08-14T10:24:38;52.97;;;6.60;;
8474;SDS011;4274;52.012;8.448;2022-08-14T10:27:16;56.03;;;6.93;;
8474;SDS011;4274;52.012;8.448;2022-08-14T10:29:55;51.67;;;6.73;;
8474;SDS011;4274;52.012;8.448;2022-08-14T10:32:24;55.37;;;7.10;;
8474;SDS011;4274;52.012;8.448;2022-08-14T10:34:51;53.43;;;6.27;;
8474;SDS011;4274;52.012;8.448;2022-08-14T10:37:35;51.77;;;6.70;;
8474;SDS011;4274;52.012;8.448;2022-08-14T10:40:07;57.37;;;7.67;;
8474;SDS011;4274;52.012;8.448;2022-08-14T10:42:34;55.73;;;6.23;;
8474;SDS011;4274;52.012;8.448;2022-08-14T10:45:29;52.57;;;6.53;;
8474;SDS011;4274;52.012;8.448;2022-08-14T10:47:55;52.90;;;6.57;;
8474;SDS011;4274;52.012;8.448;2022-08-14T10:50:31;51.67;;;6.13;;
8474;SDS011;4274;52.012;8.448;2022-08-14T10:52:58;53.67;;;6.00;;
8474;SDS011;4274;52.012;8.448;2022-08-14T10:55:30;53.13;;;5.93;;
8474;SDS011;4274;52.012;8.448;2022-08-14T10:57:59;56.60;;;5.63;;
8474;SDS011;4274;52.012;8.448;2022-08-14T11:00:25;52.07;;;6.33;;
8474;SDS011;4274;52.012;8.448;2022-08-14T11:02:57;53.20;;;6.03;;
8474;SDS011;4274;52.012;8.448;2022-08-14T11:05:37;55.17;;;6.43;;
8474;SDS011;4274;52.012;8.448;2022-08-14T11:08:07;54.27;;;5.90;;
8474;SDS011;4274;52.012;8.448;2022-08-14T11:13:07;53.43;;;6.00;;
8474;SDS011;4274;52.012;8.448;2022-08-14T11:15:33;51.53;;;5.93;;
8474;SDS011;4274;52.012;8.448;2022-08-14T11:18:00;52.77;;;5.27;;
8474;SDS011;4274;52.012;8.448;2022-08-14T11:20:26;51.92;;;6.00;;
8474;SDS011;4274;52.012;8.448;2022-08-14T11:22:54;55.08;;;6.63;;
8474;SDS011;4274;52.012;8.448;2022-08-14T11:25:22;53.20;;;6.20;;
8474;SDS011;4274;52.012;8.448;2022-08-14T11:27:56;51.10;;;5.40;;
8474;SDS011;4274;52.012;8.448;2022-08-14T11:30:24;54.40;;;6.30;;
8474;SDS011;4274;52.012;8.448;2022-08-14T11:32:51;52.60;;;5.63;;
8474;SDS011;4274;52.012;8.448;2022-08-14T11:35:22;55.87;;;6.23;;
8474;SDS011;4274;52.012;8.448;2022-08-14T11:37:51;50.80;;;5.40;;
8474;SDS011;4274;52.012;8.448;2022-08-14T11:40:19;49.60;;;4.93;;
8474;SDS011;4274;52.012;8.448;2022-08-14T11:42:46;51.33;;;5.50;;
8474;SDS011;4274;52.012;8.448;2022-08-14T11:45:13;51.77;;;5.50;;
8474;SDS011;4274;52.012;8.448;2022-08-14T11:47:39;50.80;;;5.57;;
8474;SDS011;4274;52.012;8.448;2022-08-14T11:50:12;52.20;;;5.43;;
8474;SDS011;4274;52.012;8.448;2022-08-14T11:52:43;51.33;;;5.57;;
8474;SDS011;4274;52.012;8.448;2022-08-14T11:55:11;51.70;;;5.50;;
8474;SDS011;4274;52.012;8.448;2022-08-14T11:57:38;51.27;;;5.20;;
8474;SDS011;4274;52.012;8.448;2022-08-14T12:00:14;51.50;;;5.10;;
8474;SDS011;4274;52.012;8.448;2022-08-14T12:02:57;52.08;;;5.25;;
8474;SDS011;4274;52.012;8.448;2022-08-14T12:05:27;55.65;;;6.25;;
8474;SDS011;4274;52.012;8.448;2022-08-14T12:07:54;51.72;;;5.63;;
8474;SDS011;4274;52.012;8.448;2022-08-14T12:10:19;51.38;;;5.70;;
8474;SDS011;4274;52.012;8.448;2022-08-14T12:12:46;53.67;;;5.18;;
8474;SDS011;4274;52.012;8.448;2022-08-14T12:15:12;50.63;;;5.05;;
8474;SDS011;4274;52.012;8.448;2022-08-14T12:17:45;51.38;;;4.97;;
8474;SDS011;4274;52.012;8.448;2022-08-14T12:20:17;51.90;;;6.00;;
8474;SDS011;4274;52.012;8.448;2022-08-14T12:22:43;50.72;;;5.40;;
8474;SDS011;4274;52.012;8.448;2022-08-14T12:25:11;52.27;;;5.37;;
8474;SDS011;4274;52.012;8.448;2022-08-14T12:27:42;57.70;;;5.40;;
8474;SDS011;4274;52.012;8.448;2022-08-14T12:30:13;52.63;;;5.60;;
8474;SDS011;4274;52.012;8.448;2022-08-14T12:32:52;54.43;;;5.33;;
8474;SDS011;4274;52.012;8.448;2022-08-14T12:35:20;50.30;;;5.07;;
8474;SDS011;4274;52.012;8.448;2022-08-14T12:37:48;51.20;;;5.30;;
8474;SDS011;4274;52.012;8.448;2022-08-14T12:40:15;50.30;;;5.00;;
8474;SDS011;4274;52.012;8.448;2022-08-14T12:42:47;54.17;;;5.73;;
8474;SDS011;4274;52.012;8.448;2022-08-14T12:45:15;51.77;;;5.60;;
8474;SDS011;4274;52.012;8.448;2022-08-14T12:47:41;53.80;;;5.97;;
8474;SDS011;4274;52.012;8.448;2022-08-14T12:50:08;53.27;;;5.10;;
8474;SDS011;4274;52.012;8.448;2022-08-14T12:55:04;52.30;;;6.20;;
8474;SDS011;4274;52.012;8.448;2022-08-14T12:57:33;50.90;;;5.60;;
8474;SDS011;4274;52.012;8.448;2022-08-14T13:00:04;52.10;;;5.33;;
8474;SDS011;4274;52.012;8.448;2022-08-14T13:02:41;52.20;;;5.20;;
8474;SDS011;4274;52.012;8.448;2022-08-14T13:05:09;53.07;;;5.17;;
8474;SDS011;4274;52.012;8.448;2022-08-14T13:07:36;51.10;;;5.23;;
8474;SDS011;4274;52.012;8.448;2022-08-14T13:10:04;50.00;;;4.67;;
8474;SDS011;4274;52.012;8.448;2022-08-14T13:12:39;51.33;;;4.87;;
8474;SDS011;4274;52.012;8.448;2022-08-14T13:15:07;50.87;;;5.10;;
8474;SDS011;4274;52.012;8.448;2022-08-14T13:17:40;50.33;;;4.73;;
8474;SDS011;4274;52.012;8.448;2022-08-14T13:20:08;51.70;;;4.90;;
8474;SDS011;4274;52.012;8.448;2022-08-14T13:22:36;54.27;;;5.00;;
8474;SDS011;4274;52.012;8.448;2022-08-14T13:25:05;51.70;;;5.50;;
8474;SDS011;4274;52.012;8.448;2022-08-14T13:27:32;50.40;;;4.90;;
8474;SDS011;4274;52.012;8.448;2022-08-14T13:30:00;51.83;;;5.30;;
8474;SDS011;4274;52.012;8.448;2022-08-14T13:32:28;53.37;;;5.90;;
8474;SDS011;4274;52.012;8.448;2022-08-14T13:34:53;52.13;;;5.83;;
8474;SDS011;4274;52.012;8.448;2022-08-14T13:37:22;55.40;;;5.93;;
8474;SDS011;4274;52.012;8.448;2022-08-14T13:39:48;53.30;;;5.40;;
8474;SDS011;4274;52.012;8.448;2022-08-14T13:42:18;52.00;;;5.60;;
8474;SDS011;4274;52.012;8.448;2022-08-14T13:44:45;56.67;;;5.80;;
8474;SDS011;4274;52.012;8.448;2022-08-14T13:47:15;53.53;;;5.47;;
8474;SDS011;4274;52.012;8.448;2022-08-14T13:49:43;50.70;;;5.17;;
8474;SDS011;4274;52.012;8.448;2022-08-14T13:52:14;51.00;;;5.00;;
8474;SDS011;4274;52.012;8.448;2022-08-14T13:54:46;52.57;;;5.90;;
8474;SDS011;4274;52.012;8.448;2022-08-14T13:57:14;52.13;;;5.27;;
8474;SDS011;4274;52.012;8.448;2022-08-14T13:59:47;51.40;;;5.43;;
8474;SDS011;4274;52.012;8.448;2022-08-14T14:02:15;51.37;;;5.23;;
8474;SDS011;4274;52.012;8.448;2022-08-14T14:04:43;50.80;;;5.17;;
8474;SDS011;4274;52.012;8.448;2022-08-14T14:07:11;51.90;;;5.70;;
8474;SDS011;4274;52.012;8.448;2022-08-14T14:09:40;53.27;;;5.43;;
8474;SDS011;4274;52.012;8.448;2022-08-14T14:12:08;51.77;;;4.63;;
8474;SDS011;4274;52.012;8.448;2022-08-14T14:14:34;53.77;;;5.20;;
8474;SDS011;4274;52.012;8.448;2022-08-14T14:17:02;50.83;;;4.73;;
8474;SDS011;4274;52.012;8.448;2022-08-14T14:19:29;51.60;;;5.10;;
8474;SDS011;4274;52.012;8.448;2022-08-14T14:21:59;55.23;;;5.30;;
8474;SDS011;4274;52.012;8.448;2022-08-14T14:24:30;51.70;;;5.30;;
8474;SDS011;4274;52.012;8.448;2022-08-14T14:27:03;51.53;;;5.40;;
8474;SDS011;4274;52.012;8.448;2022-08-14T14:29:32;55.40;;;5.20;;
8474;SDS011;4274;52.012;8.448;2022-08-14T14:32:00;52.00;;;5.20;;
8474;SDS011;4274;52.012;8.448;2022-08-14T14:34:27;51.50;;;4.97;;
8474;SDS011;4274;52.012;8.448;2022-08-14T14:36:55;52.57;;;5.90;;
8474;SDS011;4274;52.012;8.448;2022-08-14T14:39:22;53.47;;;5.53;;
8474;SDS011;4274;52.012;8.448;2022-08-14T14:41:50;57.87;;;10.70;;
8474;SDS011;4274;52.012;8.448;2022-08-14T14:44:21;51.20;;;5.70;;
8474;SDS011;4274;52.012;8.448;2022-08-14T14:46:49;53.80;;;5.33;;
8474;SDS011;4274;52.012;8.448;2022-08-14T14:49:15;57.33;;;5.60;;
8474;SDS011;4274;52.012;8.448;2022-08-14T14:51:43;55.00;;;5.47;;
8474;SDS011;4274;52.012;8.448;2022-08-14T14:54:11;51.77;;;5.60;;
8474;SDS011;4274;52.012;8.448;2022-08-14T14:56:40;54.53;;;5.53;;
8474;SDS011;4274;52.012;8.448;2022-08-14T14:59:06;51.50;;;5.37;;
8474;SDS011;4274;52.012;8.448;2022-08-14T15:01:35;50.83;;;4.90;;
8474;SDS011;4274;52.012;8.448;2022-08-14T15:04:02;51.47;;;5.50;;
8474;SDS011;4274;52.012;8.448;2022-08-14T15:06:29;52.00;;;5.37;;
8474;SDS011;4274;52.012;8.448;2022-08-14T15:08:58;51.40;;;5.40;;
8474;SDS011;4274;52.012;8.448;2022-08-14T15:11:24;50.63;;;5.40;;
8474;SDS011;4274;52.012;8.448;2022-08-14T15:13:50;51.10;;;5.10;;
8474;SDS011;4274;52.012;8.448;2022-08-14T15:16:16;52.27;;;5.20;;
8474;SDS011;4274;52.012;8.448;2022-08-14T15:18:42;50.00;;;5.07;;
8474;SDS011;4274;52.012;8.448;2022-08-14T15:21:09;50.83;;;5.10;;
8474;SDS011;4274;52.012;8.448;2022-08-14T15:23:35;52.07;;;5.43;;
8474;SDS011;4274;52.012;8.448;2022-08-14T15:26:00;51.53;;;5.47;;
8474;SDS011;4274;52.012;8.448;2022-08-14T15:28:26;51.10;;;5.40;;
8474;SDS011;4274;52.012;8.448;2022-08-14T15:30:53;52.63;;;6.50;;